Map

Track Data

SID SEASON NUMBER BASIN SUBBASIN NAME ISO_TIME NATURE LAT LON WMO_WIND WMO_PRES WMO_AGENCY TRACK_TYPE DIST2LAND LANDFALL IFLAG USA_AGENCY USA_ATCF_ID USA_LAT USA_LON USA_RECORD USA_STATUS USA_WIND USA_PRES USA_SSHS USA_R34_NE USA_R34_SE USA_R34_SW USA_R34_NW USA_R50_NE USA_R50_SE USA_R50_SW USA_R50_NW USA_R64_NE USA_R64_SE USA_R64_SW USA_R64_NW USA_POCI USA_ROCI USA_RMW USA_EYE TOKYO_LAT TOKYO_LON TOKYO_GRADE TOKYO_WIND TOKYO_PRES TOKYO_R50_DIR TOKYO_R50_LONG TOKYO_R50_SHORT TOKYO_R30_DIR TOKYO_R30_LONG TOKYO_R30_SHORT TOKYO_LAND CMA_LAT CMA_LON CMA_CAT CMA_WIND CMA_PRES HKO_LAT HKO_LON HKO_CAT HKO_WIND HKO_PRES NEWDELHI_LAT NEWDELHI_LON NEWDELHI_GRADE NEWDELHI_WIND NEWDELHI_PRES NEWDELHI_CI NEWDELHI_DP NEWDELHI_POCI REUNION_LAT REUNION_LON REUNION_TYPE REUNION_WIND REUNION_PRES REUNION_TNUM REUNION_CI REUNION_RMW REUNION_R34_NE REUNION_R34_SE REUNION_R34_SW REUNION_R34_NW REUNION_R50_NE REUNION_R50_SE REUNION_R50_SW REUNION_R50_NW REUNION_R64_NE REUNION_R64_SE REUNION_R64_SW REUNION_R64_NW BOM_LAT BOM_LON BOM_TYPE BOM_WIND BOM_PRES BOM_TNUM BOM_CI BOM_RMW BOM_R34_NE BOM_R34_SE BOM_R34_SW BOM_R34_NW BOM_R50_NE BOM_R50_SE BOM_R50_SW BOM_R50_NW BOM_R64_NE BOM_R64_SE BOM_R64_SW BOM_R64_NW BOM_ROCI BOM_POCI BOM_EYE BOM_POS_METHOD BOM_PRES_METHOD NADI_LAT NADI_LON NADI_CAT NADI_WIND NADI_PRES WELLINGTON_LAT WELLINGTON_LON WELLINGTON_WIND WELLINGTON_PRES DS824_LAT DS824_LON DS824_STAGE DS824_WIND DS824_PRES TD9636_LAT TD9636_LON TD9636_STAGE TD9636_WIND TD9636_PRES TD9635_LAT TD9635_LON TD9635_WIND TD9635_PRES TD9635_ROCI NEUMANN_LAT NEUMANN_LON NEUMANN_CLASS NEUMANN_WIND NEUMANN_PRES MLC_LAT MLC_LON MLC_CLASS MLC_WIND MLC_PRES USA_GUST BOM_GUST BOM_GUST_PER REUNION_GUST REUNION_GUST_PER USA_SEAHGT USA_SEARAD_NE USA_SEARAD_SE USA_SEARAD_SW USA_SEARAD_NW STORM_SPEED STORM_DIR
1932159N20090 1932 30 NI BB NOT_NAMED 1932-06-07 00:00:00 TS 19.9000 90.0000 main 210 207 _________O____ -1 19.9000 90.0000 TC 30 1 297
1932159N20090 1932 30 NI BB NOT_NAMED 1932-06-07 03:00:00 TS 19.9250 89.9350 main 207 193 _________PO___ -1 19.9375 89.9025 TC 30 19.9000 90.0000 1 2 302
1932159N20090 1932 30 NI BB NOT_NAMED 1932-06-07 06:00:00 TS 19.9925 89.8350 main 193 178 _________OP___ -1 20.0000 89.8000 TC 30 19.9813 89.8876 1 2 309
1932159N20090 1932 30 NI BB NOT_NAMED 1932-06-07 09:00:00 TS 20.0829 89.7300 main 178 164 _________PP___ -1 20.1000 89.6925 TC 30 20.0601 89.7801 1 3 314
1932159N20090 1932 30 NI BB NOT_NAMED 1932-06-07 12:00:00 TS 20.1669 89.6413 main 164 164 _________OP___ -1 20.2000 89.6000 TC 30 20.1338 89.6825 1 2 313
1932159N20090 1932 30 NI BB NOT_NAMED 1932-06-07 15:00:00 TS 20.2250 89.5675 main 164 151 _________PO___ -1 20.2500 89.5350 TC 30 20.2000 89.6000 1 2 315
1932159N20090 1932 30 NI BB NOT_NAMED 1932-06-07 18:00:00 TS 20.2794 89.5186 main 151 151 _________OP___ -1 20.3000 89.5000 TC 30 20.2587 89.5372 1 1 330
1932159N20090 1932 30 NI BB NOT_NAMED 1932-06-07 21:00:00 TS 20.3487 89.4913 main 151 140 _________PP___ -1 20.3775 89.4850 TC 30 20.3199 89.4976 1 2 0
1932159N20090 1932 30 NI BB NOT_NAMED 1932-06-08 00:00:00 TS 20.4481 89.4921 main 140 119 _________OP___ -1 20.5000 89.5000 TC 30 20.3962 89.4841 1 3 0
1932159N20090 1932 30 NI BB NOT_NAMED 1932-06-08 03:00:00 TS 20.5962 89.5175 main 119 102 _________PO___ -1 20.6925 89.5350 TC 30 20.5000 89.5000 1 3 13
1932159N20090 1932 30 NI BB NOT_NAMED 1932-06-08 06:00:00 TS 20.7752 89.5771 main 102 91 _________OP___ -1 20.9000 89.6000 TC 30 20.6504 89.5542 1 4 23
1932159N20090 1932 30 NI BB NOT_NAMED 1932-06-08 09:00:00 TS 20.9425 89.6674 main 94 73 _________PP___ -1 21.0575 89.7000 TC 30 20.8276 89.6347 1 4 28
1932159N20090 1932 30 NI BB NOT_NAMED 1932-06-08 12:00:00 TS 21.1080 89.7615 main 78 55 _________OP___ -1 21.2000 89.8000 TC 30 21.0160 89.7229 1 4 25
1932159N20090 1932 30 NI BB NOT_NAMED 1932-06-08 15:00:00 TS 21.2750 89.8325 main 55 45 _________PO___ -1 21.3500 89.8650 TC 30 21.2000 89.8000 1 3 19
1932159N20090 1932 30 NI BB NOT_NAMED 1932-06-08 18:00:00 TS 21.4347 89.8798 main 45 24 _________OP___ -1 21.5000 89.9000 TC 30 21.3693 89.8597 1 3 14
1932159N20090 1932 30 NI BB NOT_NAMED 1932-06-08 21:00:00 TS 21.5937 89.9125 main 24 15 _________PP___ -1 21.6575 89.9225 TC 30 21.5299 89.9025 1 3 4
1932159N20090 1932 30 NI BB NOT_NAMED 1932-06-09 00:00:00 TS 21.7378 89.9095 main 15 0 _________OP___ -1 21.8000 89.9000 TC 30 21.6756 89.9190 1 3 349
1932159N20090 1932 30 NI BB NOT_NAMED 1932-06-09 03:00:00 TS 21.8575 89.8575 main 0 0 _________PO___ -1 21.9150 89.8150 TC 30 21.8000 89.9000 1 3 330
1932159N20090 1932 30 NI BB NOT_NAMED 1932-06-09 06:00:00 TS 21.9523 89.7721 main 0 0 _________OP___ -1 22.0000 89.7000 TC 30 21.9047 89.8442 1 2 316
1932159N20090 1932 30 NI BB NOT_NAMED 1932-06-09 09:00:00 TS 22.0225 89.6800 main 0 0 _________PP___ -1 22.0575 89.6075 TC 30 21.9875 89.7526 1 2 303
1932159N20090 1932 30 NI BB NOT_NAMED 1932-06-09 12:00:00 TS 22.0758 89.5674 main 0 0 _________OP___ -1 22.1000 89.5000 TC 30 22.0515 89.6348 1 3 294
1932159N20090 1932 30 NI BB NOT_NAMED 1932-06-09 15:00:00 TS 22.1288 89.4288 main 0 0 _________PO___ -1 22.1575 89.3575 TC 30 22.1000 89.5000 1 3 289
1932159N20090 1932 30 NI BB NOT_NAMED 1932-06-09 18:00:00 TS 22.1634 89.2894 main 0 0 _________OP___ -1 22.2000 89.2000 TC 30 22.1360 89.3565 1 3 281
1932159N20090 1932 30 NI BB NOT_NAMED 1932-06-09 21:00:00 TS 22.1816 89.1435 main 0 0 _________PP___ -1 22.2100 89.0475 TC 30 22.1626 89.2075 1 3 275
1932159N20090 1932 30 NI BB NOT_NAMED 1932-06-10 00:00:00 TS 22.1886 89.0031 main 0 0 _________OP___ -1 22.2000 88.9000 TC 30 22.1829 89.0547 1 2 275
1932159N20090 1932 30 NI BB NOT_NAMED 1932-06-10 03:00:00 NR 22.2000 88.9000 main 0 __________O___ -1 TC 22.2000 88.9000 1 2 277

About IBTrACS Database

This database is a web-friendly format of International Best Track Archive for Climate Stewardship (IBTrACS), a global best track data archive curated by NOAA dating back to 1842.

Updated: 2021-10-08